This is the latest recevied weather packets stored in our database for station/object N4AN. If no packets are shown the sender has not sent any weather packets the latest 10 day(s).
| Time | Temp. | Humidity | Pressure | Rain* | Wind** | Luminosity | Snow |
|---|---|---|---|---|---|---|---|
| 1788135514 | 28.33° C | 81% | 1010.6 hPa | 0 mm | - | - | - |
| 1788135214 | 28.33° C | 81% | 1010.6 hPa | 0 mm | - | - | - |
| 1788134914 | 28.33° C | 80% | 1010.4 hPa | 0 mm | - | - | - |
| 1788134311 | 28.33° C | 80% | 1010.4 hPa | 0 mm | - | - | - |
| 1788134011 | 28.33° C | 80% | 1010.4 hPa | 0 mm | - | - | - |
| 1788133711 | 28.33° C | 79% | 1010.4 hPa | 0 mm | - | - | - |
| 1788133444 | 29.44° C | 75% | 1010.4 hPa | 0 mm | - | - | - |
| 1788132510 | 29.44° C | 75% | 1010.4 hPa | 0 mm | - | - | - |
| 1788132209 | 29.44° C | 76% | 1010.3 hPa | 0 mm | - | - | - |
| 1788131910 | 29.44° C | 76% | 1010.3 hPa | 0 mm | - | - | - |
| 1788131609 | 29.44° C | 76% | 1010.3 hPa | 0 mm | - | - | - |
| 1788131306 | 29.44° C | 76% | 1010.3 hPa | 0 mm | - | - | - |
| 1788131005 | 29.44° C | 76% | 1010.1 hPa | 0 mm | - | - | - |
| 1788130705 | 30° C | 75% | 1009.9 hPa | 0 mm | - | - | - |
| 1788130403 | 30° C | 75% | 1010 hPa | 0 mm | - | - | - |
| 1788130103 | 30° C | 76% | 1010.1 hPa | 0 mm | - | - | - |
| 1788129803 | 30° C | 76% | 1010.1 hPa | 0 mm | - | - | - |
| 1788129502 | 28.33° C | 80% | 1010.2 hPa | 0 mm | - | - | - |
| 1788129201 | 28.33° C | 78% | 1010.5 hPa | 0 mm | - | - | - |
| 1788128897 | 27.78° C | 79% | 1010.6 hPa | 0 mm | - | - | - |
| 1788128593 | 28.89° C | 75% | 1010.6 hPa | 0 mm | - | - | - |
| 1788128291 | 29.44° C | 75% | 1010.6 hPa | 0 mm | - | - | - |
| 1788127991 | 30.56° C | 74% | 1010.5 hPa | 0 mm | - | - | - |
| 1788127691 | 31.11° C | 74% | 1010.6 hPa | 0 mm | - | - | - |
| 1788127391 | 30.56° C | 76% | 1010.6 hPa | 0 mm | - | - | - |
* Rain latest hour (hover to see other rain measurements)
** Current wind speed in m/s (hover to see current wind gust speed)